sensor_id;sensor_type;location;lat;lon;timestamp;P1;durP1;ratioP1;P2;durP2;ratioP2
21507;SDS011;10915;54.352;9.074;2023-07-09T00:01:18;7.63;;;4.80;;
21507;SDS011;10915;54.352;9.074;2023-07-09T00:03:52;7.57;;;4.57;;
21507;SDS011;10915;54.352;9.074;2023-07-09T00:06:19;8.67;;;5.00;;
21507;SDS011;10915;54.352;9.074;2023-07-09T00:08:45;7.93;;;4.70;;
21507;SDS011;10915;54.352;9.074;2023-07-09T00:11:13;6.97;;;4.80;;
21507;SDS011;10915;54.352;9.074;2023-07-09T00:13:42;7.97;;;4.67;;
21507;SDS011;10915;54.352;9.074;2023-07-09T00:16:13;6.37;;;4.63;;
21507;SDS011;10915;54.352;9.074;2023-07-09T00:18:41;7.77;;;4.30;;
21507;SDS011;10915;54.352;9.074;2023-07-09T00:21:15;7.27;;;4.00;;
21507;SDS011;10915;54.352;9.074;2023-07-09T00:23:44;5.07;;;3.73;;
21507;SDS011;10915;54.352;9.074;2023-07-09T00:26:17;7.37;;;4.77;;
21507;SDS011;10915;54.352;9.074;2023-07-09T00:29:16;7.47;;;4.20;;
21507;SDS011;10915;54.352;9.074;2023-07-09T00:32:00;5.90;;;4.20;;
21507;SDS011;10915;54.352;9.074;2023-07-09T00:34:25;8.03;;;4.53;;
21507;SDS011;10915;54.352;9.074;2023-07-09T00:36:51;6.40;;;3.83;;
21507;SDS011;10915;54.352;9.074;2023-07-09T00:39:22;7.67;;;4.40;;
21507;SDS011;10915;54.352;9.074;2023-07-09T00:41:52;7.77;;;4.30;;
21507;SDS011;10915;54.352;9.074;2023-07-09T00:44:50;6.93;;;4.10;;
21507;SDS011;10915;54.352;9.074;2023-07-09T00:51:11;9.83;;;4.63;;
21507;SDS011;10915;54.352;9.074;2023-07-09T00:57:14;6.30;;;4.30;;
21507;SDS011;10915;54.352;9.074;2023-07-09T01:02:51;6.10;;;4.37;;
21507;SDS011;10915;54.352;9.074;2023-07-09T01:05:29;12.00;;;4.50;;
21507;SDS011;10915;54.352;9.074;2023-07-09T01:11:21;7.97;;;4.60;;
21507;SDS011;10915;54.352;9.074;2023-07-09T01:17:36;7.10;;;4.20;;
21507;SDS011;10915;54.352;9.074;2023-07-09T01:23:46;8.17;;;4.10;;
21507;SDS011;10915;54.352;9.074;2023-07-09T01:26:36;7.57;;;4.33;;
21507;SDS011;10915;54.352;9.074;2023-07-09T01:29:04;8.30;;;4.50;;
21507;SDS011;10915;54.352;9.074;2023-07-09T01:31:30;6.47;;;4.30;;
21507;SDS011;10915;54.352;9.074;2023-07-09T01:37:49;11.00;;;4.90;;
21507;SDS011;10915;54.352;9.074;2023-07-09T01:40:23;7.03;;;4.20;;
21507;SDS011;10915;54.352;9.074;2023-07-09T01:45:52;7.33;;;4.30;;
21507;SDS011;10915;54.352;9.074;2023-07-09T01:56:07;9.97;;;4.60;;
21507;SDS011;10915;54.352;9.074;2023-07-09T01:58:34;6.43;;;4.50;;
21507;SDS011;10915;54.352;9.074;2023-07-09T02:04:48;8.30;;;4.30;;
21507;SDS011;10915;54.352;9.074;2023-07-09T02:17:16;6.10;;;4.10;;
21507;SDS011;10915;54.352;9.074;2023-07-09T02:19:42;5.57;;;3.90;;
21507;SDS011;10915;54.352;9.074;2023-07-09T02:22:08;6.20;;;4.17;;
21507;SDS011;10915;54.352;9.074;2023-07-09T02:24:35;6.03;;;4.27;;
21507;SDS011;10915;54.352;9.074;2023-07-09T02:27:02;7.20;;;3.93;;
21507;SDS011;10915;54.352;9.074;2023-07-09T02:29:30;6.53;;;4.30;;
21507;SDS011;10915;54.352;9.074;2023-07-09T02:31:57;8.87;;;4.60;;
21507;SDS011;10915;54.352;9.074;2023-07-09T02:34:24;5.07;;;4.00;;
21507;SDS011;10915;54.352;9.074;2023-07-09T02:36:51;7.60;;;4.60;;
21507;SDS011;10915;54.352;9.074;2023-07-09T02:39:17;6.67;;;4.07;;
21507;SDS011;10915;54.352;9.074;2023-07-09T02:41:43;8.10;;;4.67;;
21507;SDS011;10915;54.352;9.074;2023-07-09T02:44:09;6.63;;;4.40;;
21507;SDS011;10915;54.352;9.074;2023-07-09T02:46:34;9.17;;;4.43;;
21507;SDS011;10915;54.352;9.074;2023-07-09T02:49:02;7.13;;;4.37;;
21507;SDS011;10915;54.352;9.074;2023-07-09T02:51:29;6.83;;;4.60;;
21507;SDS011;10915;54.352;9.074;2023-07-09T02:53:56;7.97;;;5.10;;
21507;SDS011;10915;54.352;9.074;2023-07-09T02:56:22;7.90;;;4.63;;
21507;SDS011;10915;54.352;9.074;2023-07-09T02:58:49;6.87;;;4.57;;
21507;SDS011;10915;54.352;9.074;2023-07-09T03:01:15;10.47;;;4.70;;
21507;SDS011;10915;54.352;9.074;2023-07-09T03:03:43;7.07;;;4.40;;
21507;SDS011;10915;54.352;9.074;2023-07-09T03:06:09;8.33;;;4.40;;
21507;SDS011;10915;54.352;9.074;2023-07-09T03:08:35;7.07;;;4.63;;
21507;SDS011;10915;54.352;9.074;2023-07-09T03:11:08;8.73;;;4.33;;
21507;SDS011;10915;54.352;9.074;2023-07-09T03:13:36;7.80;;;4.30;;
21507;SDS011;10915;54.352;9.074;2023-07-09T03:16:01;7.80;;;4.23;;
21507;SDS011;10915;54.352;9.074;2023-07-09T03:18:27;9.03;;;4.50;;
21507;SDS011;10915;54.352;9.074;2023-07-09T03:20:53;7.13;;;4.13;;
21507;SDS011;10915;54.352;9.074;2023-07-09T03:23:18;9.67;;;4.80;;
21507;SDS011;10915;54.352;9.074;2023-07-09T03:25:44;7.10;;;4.43;;
21507;SDS011;10915;54.352;9.074;2023-07-09T03:28:13;7.83;;;4.40;;
21507;SDS011;10915;54.352;9.074;2023-07-09T03:30:42;6.20;;;4.00;;
21507;SDS011;10915;54.352;9.074;2023-07-09T03:33:10;5.70;;;3.83;;
21507;SDS011;10915;54.352;9.074;2023-07-09T03:35:37;7.43;;;3.90;;
21507;SDS011;10915;54.352;9.074;2023-07-09T03:38:06;5.50;;;3.70;;
21507;SDS011;10915;54.352;9.074;2023-07-09T03:40:32;5.77;;;3.97;;
21507;SDS011;10915;54.352;9.074;2023-07-09T03:42:58;7.50;;;3.83;;
21507;SDS011;10915;54.352;9.074;2023-07-09T03:45:24;6.37;;;4.03;;
21507;SDS011;10915;54.352;9.074;2023-07-09T03:47:50;7.97;;;3.23;;
21507;SDS011;10915;54.352;9.074;2023-07-09T03:50:16;7.93;;;3.70;;
21507;SDS011;10915;54.352;9.074;2023-07-09T03:52:42;9.30;;;3.73;;
21507;SDS011;10915;54.352;9.074;2023-07-09T03:55:08;9.57;;;3.90;;
21507;SDS011;10915;54.352;9.074;2023-07-09T03:57:34;13.40;;;3.83;;
21507;SDS011;10915;54.352;9.074;2023-07-09T04:00:00;6.23;;;3.30;;
21507;SDS011;10915;54.352;9.074;2023-07-09T04:02:27;6.70;;;3.50;;
21507;SDS011;10915;54.352;9.074;2023-07-09T04:04:53;6.60;;;3.73;;
21507;SDS011;10915;54.352;9.074;2023-07-09T04:07:19;5.63;;;3.33;;
21507;SDS011;10915;54.352;9.074;2023-07-09T04:09:45;5.47;;;3.60;;
21507;SDS011;10915;54.352;9.074;2023-07-09T04:12:10;5.47;;;3.57;;
21507;SDS011;10915;54.352;9.074;2023-07-09T04:14:36;6.07;;;3.60;;
21507;SDS011;10915;54.352;9.074;2023-07-09T04:17:02;5.23;;;3.50;;
21507;SDS011;10915;54.352;9.074;2023-07-09T04:19:28;4.90;;;3.43;;
21507;SDS011;10915;54.352;9.074;2023-07-09T04:21:54;5.77;;;3.23;;
21507;SDS011;10915;54.352;9.074;2023-07-09T04:24:20;5.87;;;3.23;;
21507;SDS011;10915;54.352;9.074;2023-07-09T04:26:46;6.90;;;3.37;;
21507;SDS011;10915;54.352;9.074;2023-07-09T04:29:12;4.97;;;3.83;;
21507;SDS011;10915;54.352;9.074;2023-07-09T04:31:39;6.47;;;3.87;;
21507;SDS011;10915;54.352;9.074;2023-07-09T04:34:05;6.73;;;3.30;;
21507;SDS011;10915;54.352;9.074;2023-07-09T04:36:31;5.67;;;3.57;;
21507;SDS011;10915;54.352;9.074;2023-07-09T04:38:59;6.47;;;3.60;;
21507;SDS011;10915;54.352;9.074;2023-07-09T04:41:31;4.90;;;3.10;;
21507;SDS011;10915;54.352;9.074;2023-07-09T04:43:58;7.37;;;3.63;;
21507;SDS011;10915;54.352;9.074;2023-07-09T04:46:23;5.00;;;3.37;;
21507;SDS011;10915;54.352;9.074;2023-07-09T04:48:49;5.83;;;3.33;;
21507;SDS011;10915;54.352;9.074;2023-07-09T04:51:15;8.60;;;3.73;;
21507;SDS011;10915;54.352;9.074;2023-07-09T04:53:41;4.53;;;3.20;;
21507;SDS011;10915;54.352;9.074;2023-07-09T04:56:07;5.97;;;3.60;;
21507;SDS011;10915;54.352;9.074;2023-07-09T04:58:34;6.97;;;3.23;;
21507;SDS011;10915;54.352;9.074;2023-07-09T05:01:00;3.70;;;3.20;;
21507;SDS011;10915;54.352;9.074;2023-07-09T05:03:26;6.27;;;3.40;;
21507;SDS011;10915;54.352;9.074;2023-07-09T05:05:51;5.43;;;3.03;;
21507;SDS011;10915;54.352;9.074;2023-07-09T05:08:17;6.20;;;3.47;;
21507;SDS011;10915;54.352;9.074;2023-07-09T05:10:44;6.03;;;3.07;;
21507;SDS011;10915;54.352;9.074;2023-07-09T05:13:12;4.23;;;3.00;;
21507;SDS011;10915;54.352;9.074;2023-07-09T05:15:41;6.03;;;3.57;;
21507;SDS011;10915;54.352;9.074;2023-07-09T05:18:09;6.50;;;3.03;;
21507;SDS011;10915;54.352;9.074;2023-07-09T05:20:35;5.17;;;3.03;;
21507;SDS011;10915;54.352;9.074;2023-07-09T05:23:01;5.13;;;3.20;;
21507;SDS011;10915;54.352;9.074;2023-07-09T05:25:27;5.27;;;3.30;;
21507;SDS011;10915;54.352;9.074;2023-07-09T05:27:52;5.73;;;3.60;;
21507;SDS011;10915;54.352;9.074;2023-07-09T05:30:18;4.83;;;3.43;;
21507;SDS011;10915;54.352;9.074;2023-07-09T05:32:44;4.30;;;3.00;;
21507;SDS011;10915;54.352;9.074;2023-07-09T05:35:10;4.97;;;3.20;;
21507;SDS011;10915;54.352;9.074;2023-07-09T05:37:36;6.70;;;3.13;;
21507;SDS011;10915;54.352;9.074;2023-07-09T05:40:02;4.30;;;3.17;;
21507;SDS011;10915;54.352;9.074;2023-07-09T05:42:30;8.20;;;3.73;;
21507;SDS011;10915;54.352;9.074;2023-07-09T05:44:56;5.67;;;3.23;;
21507;SDS011;10915;54.352;9.074;2023-07-09T05:47:22;5.10;;;2.93;;
21507;SDS011;10915;54.352;9.074;2023-07-09T05:49:48;4.27;;;3.03;;
21507;SDS011;10915;54.352;9.074;2023-07-09T05:52:16;4.37;;;2.60;;
21507;SDS011;10915;54.352;9.074;2023-07-09T05:54:42;3.30;;;2.53;;
21507;SDS011;10915;54.352;9.074;2023-07-09T05:57:08;4.53;;;3.20;;
21507;SDS011;10915;54.352;9.074;2023-07-09T05:59:33;5.13;;;2.97;;
21507;SDS011;10915;54.352;9.074;2023-07-09T06:01:59;4.73;;;2.73;;
21507;SDS011;10915;54.352;9.074;2023-07-09T06:04:26;4.33;;;2.63;;
21507;SDS011;10915;54.352;9.074;2023-07-09T06:06:52;4.17;;;2.77;;
21507;SDS011;10915;54.352;9.074;2023-07-09T06:09:18;5.57;;;3.13;;
21507;SDS011;10915;54.352;9.074;2023-07-09T06:11:44;4.80;;;2.97;;
21507;SDS011;10915;54.352;9.074;2023-07-09T06:14:09;4.13;;;2.90;;
21507;SDS011;10915;54.352;9.074;2023-07-09T06:16:35;4.63;;;3.00;;
21507;SDS011;10915;54.352;9.074;2023-07-09T06:19:02;4.83;;;3.10;;
21507;SDS011;10915;54.352;9.074;2023-07-09T06:21:28;5.13;;;2.90;;
21507;SDS011;10915;54.352;9.074;2023-07-09T06:23:54;4.53;;;2.63;;
21507;SDS011;10915;54.352;9.074;2023-07-09T06:26:19;5.97;;;2.97;;
21507;SDS011;10915;54.352;9.074;2023-07-09T06:28:45;5.80;;;2.80;;
21507;SDS011;10915;54.352;9.074;2023-07-09T06:31:11;5.97;;;2.93;;
21507;SDS011;10915;54.352;9.074;2023-07-09T06:33:37;4.57;;;2.53;;
21507;SDS011;10915;54.352;9.074;2023-07-09T06:36:02;4.77;;;3.17;;
21507;SDS011;10915;54.352;9.074;2023-07-09T06:38:29;5.97;;;2.87;;
21507;SDS011;10915;54.352;9.074;2023-07-09T06:40:55;10.20;;;3.03;;
21507;SDS011;10915;54.352;9.074;2023-07-09T06:43:21;4.27;;;2.80;;
21507;SDS011;10915;54.352;9.074;2023-07-09T06:45:48;9.50;;;3.33;;
21507;SDS011;10915;54.352;9.074;2023-07-09T06:48:18;4.97;;;3.43;;
21507;SDS011;10915;54.352;9.074;2023-07-09T06:50:45;4.63;;;2.83;;
21507;SDS011;10915;54.352;9.074;2023-07-09T06:53:11;5.57;;;3.07;;
21507;SDS011;10915;54.352;9.074;2023-07-09T06:55:37;4.90;;;2.70;;
21507;SDS011;10915;54.352;9.074;2023-07-09T06:58:02;8.00;;;2.83;;
21507;SDS011;10915;54.352;9.074;2023-07-09T07:00:28;5.07;;;3.13;;
21507;SDS011;10915;54.352;9.074;2023-07-09T07:02:54;4.57;;;2.90;;
21507;SDS011;10915;54.352;9.074;2023-07-09T07:05:22;7.47;;;3.07;;
21507;SDS011;10915;54.352;9.074;2023-07-09T07:07:48;3.07;;;2.17;;
21507;SDS011;10915;54.352;9.074;2023-07-09T07:10:13;4.82;;;2.90;;
21507;SDS011;10915;54.352;9.074;2023-07-09T07:12:43;5.53;;;2.77;;
21507;SDS011;10915;54.352;9.074;2023-07-09T07:15:10;7.80;;;3.33;;
21507;SDS011;10915;54.352;9.074;2023-07-09T07:17:38;5.97;;;2.90;;
21507;SDS011;10915;54.352;9.074;2023-07-09T07:20:04;4.30;;;2.63;;
21507;SDS011;10915;54.352;9.074;2023-07-09T07:22:31;5.60;;;2.80;;
21507;SDS011;10915;54.352;9.074;2023-07-09T07:24:56;12.37;;;2.70;;
21507;SDS011;10915;54.352;9.074;2023-07-09T07:27:22;7.37;;;3.20;;
21507;SDS011;10915;54.352;9.074;2023-07-09T07:29:48;4.87;;;2.77;;
21507;SDS011;10915;54.352;9.074;2023-07-09T07:32:13;6.50;;;3.40;;
21507;SDS011;10915;54.352;9.074;2023-07-09T07:34:39;4.33;;;2.50;;
21507;SDS011;10915;54.352;9.074;2023-07-09T07:37:04;4.67;;;2.50;;
21507;SDS011;10915;54.352;9.074;2023-07-09T07:39:30;4.73;;;2.77;;
21507;SDS011;10915;54.352;9.074;2023-07-09T07:41:56;4.33;;;2.97;;
21507;SDS011;10915;54.352;9.074;2023-07-09T07:44:22;7.33;;;2.67;;
21507;SDS011;10915;54.352;9.074;2023-07-09T07:46:48;5.80;;;2.90;;
21507;SDS011;10915;54.352;9.074;2023-07-09T07:49:13;6.53;;;3.20;;
21507;SDS011;10915;54.352;9.074;2023-07-09T07:51:39;3.53;;;2.60;;
21507;SDS011;10915;54.352;9.074;2023-07-09T07:54:06;5.10;;;3.00;;
21507;SDS011;10915;54.352;9.074;2023-07-09T07:56:33;7.53;;;3.07;;
21507;SDS011;10915;54.352;9.074;2023-07-09T07:58:59;4.10;;;2.57;;
21507;SDS011;10915;54.352;9.074;2023-07-09T08:01:25;6.90;;;3.03;;
21507;SDS011;10915;54.352;9.074;2023-07-09T08:03:51;3.70;;;2.70;;
21507;SDS011;10915;54.352;9.074;2023-07-09T08:06:16;3.90;;;2.77;;
21507;SDS011;10915;54.352;9.074;2023-07-09T08:08:42;3.90;;;2.93;;
21507;SDS011;10915;54.352;9.074;2023-07-09T08:11:08;4.87;;;2.80;;
21507;SDS011;10915;54.352;9.074;2023-07-09T08:13:35;3.80;;;2.90;;
21507;SDS011;10915;54.352;9.074;2023-07-09T08:16:01;5.43;;;2.57;;
21507;SDS011;10915;54.352;9.074;2023-07-09T08:18:27;6.03;;;2.90;;
21507;SDS011;10915;54.352;9.074;2023-07-09T08:21:02;6.57;;;2.83;;
21507;SDS011;10915;54.352;9.074;2023-07-09T08:23:28;4.30;;;3.07;;
21507;SDS011;10915;54.352;9.074;2023-07-09T08:26:01;4.80;;;2.90;;
21507;SDS011;10915;54.352;9.074;2023-07-09T08:28:33;6.83;;;3.00;;
21507;SDS011;10915;54.352;9.074;2023-07-09T08:31:09;7.17;;;2.90;;
21507;SDS011;10915;54.352;9.074;2023-07-09T08:33:35;4.73;;;3.03;;
21507;SDS011;10915;54.352;9.074;2023-07-09T08:36:13;5.97;;;2.90;;
21507;SDS011;10915;54.352;9.074;2023-07-09T08:44:55;5.10;;;2.80;;
21507;SDS011;10915;54.352;9.074;2023-07-09T08:50:21;5.67;;;2.73;;
21507;SDS011;10915;54.352;9.074;2023-07-09T08:52:50;5.40;;;2.80;;
21507;SDS011;10915;54.352;9.074;2023-07-09T08:55:19;3.97;;;2.57;;
21507;SDS011;10915;54.352;9.074;2023-07-09T08:57:50;5.07;;;3.00;;
21507;SDS011;10915;54.352;9.074;2023-07-09T09:00:27;7.13;;;3.10;;
21507;SDS011;10915;54.352;9.074;2023-07-09T09:02:58;6.00;;;3.20;;
21507;SDS011;10915;54.352;9.074;2023-07-09T09:05:30;6.63;;;3.17;;
21507;SDS011;10915;54.352;9.074;2023-07-09T09:10:44;6.70;;;3.00;;
21507;SDS011;10915;54.352;9.074;2023-07-09T09:13:16;5.73;;;3.27;;
21507;SDS011;10915;54.352;9.074;2023-07-09T09:15:48;6.83;;;3.37;;
21507;SDS011;10915;54.352;9.074;2023-07-09T09:18:20;5.63;;;3.10;;
21507;SDS011;10915;54.352;9.074;2023-07-09T09:24:13;6.03;;;3.00;;
21507;SDS011;10915;54.352;9.074;2023-07-09T09:26:43;5.37;;;2.97;;
21507;SDS011;10915;54.352;9.074;2023-07-09T09:29:14;4.63;;;3.03;;
21507;SDS011;10915;54.352;9.074;2023-07-09T09:31:52;4.30;;;2.50;;
21507;SDS011;10915;54.352;9.074;2023-07-09T09:34:32;6.80;;;3.30;;
21507;SDS011;10915;54.352;9.074;2023-07-09T09:37:21;5.30;;;2.93;;
21507;SDS011;10915;54.352;9.074;2023-07-09T09:39:55;5.67;;;3.20;;
21507;SDS011;10915;54.352;9.074;2023-07-09T09:42:24;4.97;;;3.37;;
21507;SDS011;10915;54.352;9.074;2023-07-09T09:44:52;3.40;;;2.78;;
21507;SDS011;10915;54.352;9.074;2023-07-09T09:47:19;6.03;;;3.30;;
21507;SDS011;10915;54.352;9.074;2023-07-09T09:52:56;5.13;;;2.75;;
21507;SDS011;10915;54.352;9.074;2023-07-09T09:55:29;4.63;;;2.97;;
21507;SDS011;10915;54.352;9.074;2023-07-09T09:58:00;5.13;;;2.88;;
21507;SDS011;10915;54.352;9.074;2023-07-09T10:00:28;5.20;;;2.85;;
21507;SDS011;10915;54.352;9.074;2023-07-09T10:03:04;6.05;;;3.03;;
21507;SDS011;10915;54.352;9.074;2023-07-09T10:06:05;5.55;;;3.20;;
21507;SDS011;10915;54.352;9.074;2023-07-09T10:14:16;8.00;;;2.88;;
21507;SDS011;10915;54.352;9.074;2023-07-09T10:26:41;5.20;;;3.17;;
21507;SDS011;10915;54.352;9.074;2023-07-09T10:40:59;4.45;;;3.00;;
21507;SDS011;10915;54.352;9.074;2023-07-09T10:46:31;7.05;;;3.40;;
21507;SDS011;10915;54.352;9.074;2023-07-09T10:49:24;7.75;;;3.80;;
21507;SDS011;10915;54.352;9.074;2023-07-09T10:52:27;6.47;;;3.22;;
21507;SDS011;10915;54.352;9.074;2023-07-09T10:55:20;6.32;;;2.97;;
21507;SDS011;10915;54.352;9.074;2023-07-09T11:02:38;5.22;;;3.53;;
21507;SDS011;10915;54.352;9.074;2023-07-09T11:05:00;6.90;;;3.25;;
21507;SDS011;10915;54.352;9.074;2023-07-09T11:14:00;4.07;;;3.00;;
21507;SDS011;10915;54.352;9.074;2023-07-09T11:17:36;3.97;;;2.88;;
21507;SDS011;10915;54.352;9.074;2023-07-09T11:20:41;4.90;;;3.08;;
21507;SDS011;10915;54.352;9.074;2023-07-09T11:23:25;5.38;;;3.42;;
21507;SDS011;10915;54.352;9.074;2023-07-09T11:29:31;6.10;;;2.92;;
21507;SDS011;10915;54.352;9.074;2023-07-09T11:32:29;4.95;;;3.03;;
21507;SDS011;10915;54.352;9.074;2023-07-09T11:35:19;3.78;;;3.05;;
21507;SDS011;10915;54.352;9.074;2023-07-09T11:38:26;6.65;;;3.28;;
21507;SDS011;10915;54.352;9.074;2023-07-09T11:47:41;6.53;;;3.53;;
21507;SDS011;10915;54.352;9.074;2023-07-09T11:50:27;4.28;;;3.00;;
21507;SDS011;10915;54.352;9.074;2023-07-09T11:54:04;5.70;;;3.33;;
21507;SDS011;10915;54.352;9.074;2023-07-09T12:00:21;5.82;;;3.60;;
21507;SDS011;10915;54.352;9.074;2023-07-09T12:02:53;6.10;;;3.55;;
21507;SDS011;10915;54.352;9.074;2023-07-09T12:05:25;6.50;;;3.28;;
21507;SDS011;10915;54.352;9.074;2023-07-09T12:11:31;6.43;;;3.28;;
21507;SDS011;10915;54.352;9.074;2023-07-09T12:31:30;5.43;;;3.40;;
21507;SDS011;10915;54.352;9.074;2023-07-09T12:34:11;4.45;;;3.42;;
21507;SDS011;10915;54.352;9.074;2023-07-09T12:36:48;5.88;;;3.17;;
21507;SDS011;10915;54.352;9.074;2023-07-09T12:40:03;7.13;;;3.63;;
21507;SDS011;10915;54.352;9.074;2023-07-09T12:42:58;6.43;;;3.60;;
21507;SDS011;10915;54.352;9.074;2023-07-09T12:45:27;6.18;;;3.53;;
21507;SDS011;10915;54.352;9.074;2023-07-09T12:51:28;5.35;;;3.28;;
21507;SDS011;10915;54.352;9.074;2023-07-09T12:57:42;4.15;;;3.28;;
21507;SDS011;10915;54.352;9.074;2023-07-09T13:00:52;4.60;;;3.55;;
21507;SDS011;10915;54.352;9.074;2023-07-09T13:04:16;7.15;;;3.60;;
21507;SDS011;10915;54.352;9.074;2023-07-09T13:06:46;4.93;;;3.30;;
21507;SDS011;10915;54.352;9.074;2023-07-09T13:10:03;5.63;;;3.42;;
21507;SDS011;10915;54.352;9.074;2023-07-09T13:12:54;5.68;;;4.03;;
21507;SDS011;10915;54.352;9.074;2023-07-09T13:15:40;5.70;;;3.35;;
21507;SDS011;10915;54.352;9.074;2023-07-09T13:18:16;5.72;;;3.30;;
21507;SDS011;10915;54.352;9.074;2023-07-09T13:20:47;6.32;;;3.65;;
21507;SDS011;10915;54.352;9.074;2023-07-09T13:23:17;5.95;;;3.88;;
21507;SDS011;10915;54.352;9.074;2023-07-09T13:25:59;6.75;;;3.97;;
21507;SDS011;10915;54.352;9.074;2023-07-09T13:28:31;4.50;;;3.75;;
21507;SDS011;10915;54.352;9.074;2023-07-09T13:31:23;6.05;;;3.67;;
21507;SDS011;10915;54.352;9.074;2023-07-09T13:33:55;5.88;;;3.72;;
21507;SDS011;10915;54.352;9.074;2023-07-09T13:36:52;6.18;;;3.53;;
21507;SDS011;10915;54.352;9.074;2023-07-09T13:42:40;6.13;;;3.58;;
21507;SDS011;10915;54.352;9.074;2023-07-09T13:45:27;6.55;;;4.30;;
21507;SDS011;10915;54.352;9.074;2023-07-09T13:48:01;5.32;;;3.60;;
21507;SDS011;10915;54.352;9.074;2023-07-09T13:50:39;8.50;;;3.85;;
21507;SDS011;10915;54.352;9.074;2023-07-09T13:56:04;5.03;;;3.65;;
21507;SDS011;10915;54.352;9.074;2023-07-09T14:01:57;7.05;;;4.18;;
21507;SDS011;10915;54.352;9.074;2023-07-09T14:10:07;6.72;;;3.33;;
21507;SDS011;10915;54.352;9.074;2023-07-09T14:15:29;7.43;;;3.70;;
21507;SDS011;10915;54.352;9.074;2023-07-09T14:17:58;6.00;;;3.20;;
21507;SDS011;10915;54.352;9.074;2023-07-09T14:20:23;9.68;;;3.63;;
21507;SDS011;10915;54.352;9.074;2023-07-09T14:22:49;8.05;;;3.35;;
21507;SDS011;10915;54.352;9.074;2023-07-09T14:25:24;5.93;;;3.28;;
21507;SDS011;10915;54.352;9.074;2023-07-09T14:27:53;4.70;;;3.13;;
21507;SDS011;10915;54.352;9.074;2023-07-09T14:30:20;6.78;;;3.47;;
21507;SDS011;10915;54.352;9.074;2023-07-09T14:32:49;7.65;;;3.20;;
21507;SDS011;10915;54.352;9.074;2023-07-09T14:35:17;4.72;;;3.28;;
21507;SDS011;10915;54.352;9.074;2023-07-09T14:37:45;10.70;;;3.35;;
21507;SDS011;10915;54.352;9.074;2023-07-09T14:40:11;5.50;;;3.25;;
21507;SDS011;10915;54.352;9.074;2023-07-09T14:42:38;6.63;;;3.42;;
21507;SDS011;10915;54.352;9.074;2023-07-09T14:45:05;6.40;;;3.40;;
21507;SDS011;10915;54.352;9.074;2023-07-09T14:47:42;8.00;;;3.33;;
21507;SDS011;10915;54.352;9.074;2023-07-09T14:50:08;8.65;;;3.10;;
21507;SDS011;10915;54.352;9.074;2023-07-09T14:52:34;6.05;;;3.00;;
21507;SDS011;10915;54.352;9.074;2023-07-09T14:55:00;6.43;;;3.33;;
21507;SDS011;10915;54.352;9.074;2023-07-09T14:57:27;6.82;;;3.05;;
21507;SDS011;10915;54.352;9.074;2023-07-09T14:59:55;4.07;;;2.70;;
21507;SDS011;10915;54.352;9.074;2023-07-09T15:02:44;7.43;;;3.50;;
21507;SDS011;10915;54.352;9.074;2023-07-09T15:05:13;5.50;;;3.35;;
21507;SDS011;10915;54.352;9.074;2023-07-09T15:07:41;11.32;;;3.40;;
21507;SDS011;10915;54.352;9.074;2023-07-09T15:10:08;10.55;;;3.75;;
21507;SDS011;10915;54.352;9.074;2023-07-09T15:12:38;11.45;;;3.38;;
21507;SDS011;10915;54.352;9.074;2023-07-09T15:17:41;6.03;;;3.22;;
21507;SDS011;10915;54.352;9.074;2023-07-09T15:20:14;5.80;;;3.30;;
21507;SDS011;10915;54.352;9.074;2023-07-09T15:22:41;7.13;;;3.60;;
21507;SDS011;10915;54.352;9.074;2023-07-09T15:25:15;5.47;;;2.80;;
21507;SDS011;10915;54.352;9.074;2023-07-09T15:27:43;8.27;;;3.42;;
21507;SDS011;10915;54.352;9.074;2023-07-09T15:30:13;7.40;;;3.25;;
21507;SDS011;10915;54.352;9.074;2023-07-09T15:32:44;5.82;;;3.35;;
21507;SDS011;10915;54.352;9.074;2023-07-09T15:35:11;4.35;;;3.00;;
21507;SDS011;10915;54.352;9.074;2023-07-09T15:37:38;6.40;;;3.30;;
21507;SDS011;10915;54.352;9.074;2023-07-09T15:40:05;6.07;;;3.20;;
21507;SDS011;10915;54.352;9.074;2023-07-09T15:42:39;5.72;;;3.33;;
21507;SDS011;10915;54.352;9.074;2023-07-09T15:45:04;4.95;;;3.13;;
21507;SDS011;10915;54.352;9.074;2023-07-09T15:47:30;7.13;;;3.60;;
21507;SDS011;10915;54.352;9.074;2023-07-09T15:49:56;6.72;;;3.28;;
21507;SDS011;10915;54.352;9.074;2023-07-09T15:52:21;6.55;;;3.22;;
21507;SDS011;10915;54.352;9.074;2023-07-09T15:54:47;6.93;;;3.45;;
21507;SDS011;10915;54.352;9.074;2023-07-09T15:57:13;6.82;;;3.65;;
21507;SDS011;10915;54.352;9.074;2023-07-09T15:59:40;7.55;;;3.75;;
21507;SDS011;10915;54.352;9.074;2023-07-09T16:02:11;8.23;;;4.32;;
21507;SDS011;10915;54.352;9.074;2023-07-09T16:04:41;7.05;;;4.05;;
21507;SDS011;10915;54.352;9.074;2023-07-09T16:07:07;8.77;;;4.05;;
21507;SDS011;10915;54.352;9.074;2023-07-09T16:09:33;11.20;;;4.85;;
21507;SDS011;10915;54.352;9.074;2023-07-09T16:11:59;7.93;;;4.72;;
21507;SDS011;10915;54.352;9.074;2023-07-09T16:14:28;6.88;;;5.05;;
21507;SDS011;10915;54.352;9.074;2023-07-09T16:16:56;12.00;;;5.40;;
21507;SDS011;10915;54.352;9.074;2023-07-09T16:19:25;8.10;;;4.53;;
21507;SDS011;10915;54.352;9.074;2023-07-09T16:21:53;8.73;;;4.63;;
21507;SDS011;10915;54.352;9.074;2023-07-09T16:24:21;7.10;;;4.10;;
21507;SDS011;10915;54.352;9.074;2023-07-09T16:26:55;6.63;;;4.20;;
21507;SDS011;10915;54.352;9.074;2023-07-09T16:29:23;7.30;;;4.00;;
21507;SDS011;10915;54.352;9.074;2023-07-09T16:31:54;6.93;;;3.73;;
21507;SDS011;10915;54.352;9.074;2023-07-09T16:34:24;7.90;;;3.90;;
21507;SDS011;10915;54.352;9.074;2023-07-09T16:36:50;8.20;;;3.57;;
21507;SDS011;10915;54.352;9.074;2023-07-09T16:39:36;6.03;;;3.23;;
21507;SDS011;10915;54.352;9.074;2023-07-09T16:42:13;8.37;;;3.70;;
21507;SDS011;10915;54.352;9.074;2023-07-09T16:44:39;8.40;;;3.63;;
21507;SDS011;10915;54.352;9.074;2023-07-09T16:47:16;6.73;;;3.57;;
21507;SDS011;10915;54.352;9.074;2023-07-09T16:49:45;10.10;;;3.50;;
21507;SDS011;10915;54.352;9.074;2023-07-09T16:54:42;6.60;;;4.00;;
21507;SDS011;10915;54.352;9.074;2023-07-09T16:57:18;7.07;;;4.07;;
21507;SDS011;10915;54.352;9.074;2023-07-09T16:59:49;5.03;;;3.50;;
21507;SDS011;10915;54.352;9.074;2023-07-09T17:04:52;6.13;;;3.47;;
21507;SDS011;10915;54.352;9.074;2023-07-09T17:07:19;7.10;;;3.50;;
21507;SDS011;10915;54.352;9.074;2023-07-09T17:09:45;7.80;;;3.73;;
21507;SDS011;10915;54.352;9.074;2023-07-09T17:12:10;6.13;;;3.40;;
21507;SDS011;10915;54.352;9.074;2023-07-09T17:14:38;7.00;;;3.80;;
21507;SDS011;10915;54.352;9.074;2023-07-09T17:17:04;5.23;;;3.47;;
21507;SDS011;10915;54.352;9.074;2023-07-09T17:19:40;6.13;;;3.80;;
21507;SDS011;10915;54.352;9.074;2023-07-09T17:24:56;6.30;;;3.40;;
21507;SDS011;10915;54.352;9.074;2023-07-09T17:27:21;6.13;;;3.53;;
21507;SDS011;10915;54.352;9.074;2023-07-09T17:29:47;7.23;;;3.50;;
21507;SDS011;10915;54.352;9.074;2023-07-09T17:32:13;6.73;;;3.57;;
21507;SDS011;10915;54.352;9.074;2023-07-09T17:34:40;6.90;;;3.43;;
21507;SDS011;10915;54.352;9.074;2023-07-09T17:37:13;6.60;;;3.23;;
21507;SDS011;10915;54.352;9.074;2023-07-09T17:39:40;4.97;;;2.93;;
21507;SDS011;10915;54.352;9.074;2023-07-09T17:42:11;4.20;;;3.13;;
21507;SDS011;10915;54.352;9.074;2023-07-09T17:44:38;6.17;;;3.50;;
21507;SDS011;10915;54.352;9.074;2023-07-09T17:47:05;5.67;;;3.30;;
21507;SDS011;10915;54.352;9.074;2023-07-09T17:49:40;6.13;;;3.53;;
21507;SDS011;10915;54.352;9.074;2023-07-09T17:52:12;7.90;;;4.10;;
21507;SDS011;10915;54.352;9.074;2023-07-09T17:54:45;8.73;;;4.20;;
21507;SDS011;10915;54.352;9.074;2023-07-09T17:57:18;12.17;;;4.10;;
21507;SDS011;10915;54.352;9.074;2023-07-09T17:59:48;9.53;;;5.60;;
21507;SDS011;10915;54.352;9.074;2023-07-09T18:02:36;8.73;;;5.87;;
21507;SDS011;10915;54.352;9.074;2023-07-09T18:05:02;12.40;;;6.07;;
21507;SDS011;10915;54.352;9.074;2023-07-09T18:07:51;8.13;;;5.43;;
21507;SDS011;10915;54.352;9.074;2023-07-09T18:10:16;10.10;;;6.20;;